createdAt,value
2023-04-23T00:01:02.294Z,50.33
2023-04-23T00:02:06.395Z,50.21
2023-04-23T00:03:10.214Z,49.66
2023-04-23T00:04:12.379Z,49.78
2023-04-23T00:05:14.081Z,49.93
2023-04-23T00:06:17.669Z,49.77
2023-04-23T00:07:20.024Z,50.11
2023-04-23T00:08:22.541Z,50.07
2023-04-23T00:09:24.492Z,50.15
2023-04-23T00:10:27.062Z,50.29
2023-04-23T00:11:28.613Z,50.00
2023-04-23T00:12:30.353Z,50.24
2023-04-23T00:13:32.279Z,50.19
2023-04-23T00:14:33.868Z,50.35
2023-04-23T00:15:35.597Z,50.14
2023-04-23T00:16:37.507Z,50.12
2023-04-23T00:17:39.057Z,49.82
2023-04-23T00:18:40.721Z,49.58
2023-04-23T00:19:42.237Z,49.68
2023-04-23T00:20:43.795Z,49.32
2023-04-23T00:21:45.570Z,49.21
2023-04-23T00:22:47.167Z,49.11
2023-04-23T00:23:48.786Z,49.12
2023-04-23T00:24:50.372Z,49.09
2023-04-23T00:25:51.923Z,49.02
2023-04-23T00:26:53.665Z,49.17
2023-04-23T00:27:55.231Z,49.06
2023-04-23T00:28:56.746Z,49.09
2023-04-23T00:29:58.178Z,49.13
2023-04-23T00:30:59.771Z,49.24
2023-04-23T00:32:04.316Z,49.28
2023-04-23T00:33:08.423Z,49.29
2023-04-23T00:34:10.040Z,50.12
2023-04-23T00:35:11.634Z,49.75
2023-04-23T00:36:13.251Z,49.92
2023-04-23T00:37:15.046Z,49.78
2023-04-23T00:39:18.390Z,49.78
2023-04-23T00:40:20.777Z,49.84
2023-04-23T00:41:22.874Z,49.45
2023-04-23T00:42:24.523Z,49.60
2023-04-23T00:43:26.702Z,49.35
2023-04-23T00:44:28.286Z,49.47
2023-04-23T00:45:29.803Z,49.58
2023-04-23T00:46:33.803Z,49.52
2023-04-23T00:47:35.970Z,49.76
2023-04-23T00:48:37.753Z,50.13
2023-04-23T00:49:39.461Z,49.87
2023-04-23T00:50:41.587Z,49.87
2023-04-23T00:51:45.641Z,49.82
2023-04-23T00:52:47.122Z,49.62
2023-04-23T00:53:49.318Z,49.55
2023-04-23T00:54:53.174Z,49.15
2023-04-23T00:55:54.816Z,49.76
2023-04-23T00:56:58.077Z,49.71
2023-04-23T00:58:00.745Z,49.51
2023-04-23T00:59:03.385Z,49.97
2023-04-23T01:00:05.939Z,49.72
2023-04-23T01:01:07.763Z,50.03
2023-04-23T01:02:09.473Z,49.68
2023-04-23T01:03:11.397Z,49.91
2023-04-23T01:04:14.833Z,49.89
2023-04-23T01:05:19.857Z,49.65
2023-04-23T01:06:21.589Z,50.05
2023-04-23T01:07:23.581Z,49.91
2023-04-23T01:08:26.095Z,50.08
2023-04-23T01:09:27.944Z,49.73
2023-04-23T01:10:32.574Z,49.75
2023-04-23T01:11:34.196Z,49.67
2023-04-23T01:12:35.708Z,49.51
2023-04-23T01:13:37.258Z,49.46
2023-04-23T01:14:39.145Z,49.26
2023-04-23T01:15:41.100Z,49.30
2023-04-23T01:16:42.608Z,49.09
2023-04-23T01:17:44.284Z,49.61
2023-04-23T01:18:48.330Z,49.79
2023-04-23T01:19:49.881Z,49.55
2023-04-23T01:20:51.634Z,49.17
2023-04-23T01:21:53.542Z,49.13
2023-04-23T01:22:55.096Z,48.67
2023-04-23T01:23:58.998Z,48.74
2023-04-23T01:25:01.050Z,48.18
2023-04-23T01:26:03.081Z,48.64
2023-04-23T01:27:04.659Z,48.55
2023-04-23T01:28:09.378Z,48.58
2023-04-23T01:29:13.974Z,48.58
2023-04-23T01:30:15.816Z,48.50
2023-04-23T01:31:17.454Z,48.43
2023-04-23T01:32:19.368Z,48.52
2023-04-23T01:33:21.231Z,48.64
2023-04-23T01:34:22.708Z,48.76
2023-04-23T01:35:27.308Z,48.65
2023-04-23T01:36:29.512Z,48.10
2023-04-23T01:37:34.023Z,48.21
2023-04-23T01:38:38.863Z,48.48
2023-04-23T01:39:40.463Z,48.51
2023-04-23T01:40:42.319Z,48.59
2023-04-23T01:41:43.910Z,49.02
2023-04-23T01:42:46.153Z,48.73
2023-04-23T01:43:47.904Z,48.67
2023-04-23T01:44:52.287Z,48.82
2023-04-23T01:45:56.278Z,48.33
2023-04-23T01:46:58.197Z,48.52
2023-04-23T01:48:00.104Z,48.36
2023-04-23T01:49:01.739Z,48.26
2023-04-23T01:50:05.144Z,48.13
2023-04-23T01:51:06.739Z,48.10
2023-04-23T01:52:08.321Z,48.31
2023-04-23T01:53:15.523Z,48.28
2023-04-23T01:54:16.979Z,48.51
2023-04-23T01:55:20.914Z,48.49
2023-04-23T01:56:25.343Z,48.40
2023-04-23T01:57:29.151Z,48.65
2023-04-23T01:58:30.786Z,48.79
2023-04-23T01:59:32.459Z,48.50
2023-04-23T02:00:34.021Z,48.62
2023-04-23T02:01:47.301Z,48.40
2023-04-23T02:02:49.025Z,48.53
2023-04-23T02:03:51.262Z,48.39
2023-04-23T02:04:53.890Z,48.48
2023-04-23T02:05:55.734Z,48.58
2023-04-23T02:06:57.358Z,48.47
2023-04-23T02:07:59.021Z,48.46
2023-04-23T02:09:00.596Z,48.05
2023-04-23T02:10:02.511Z,48.64
2023-04-23T02:11:05.276Z,48.68
2023-04-23T02:12:07.019Z,48.44
2023-04-23T02:13:08.868Z,48.60
2023-04-23T02:14:10.847Z,48.52
2023-04-23T02:15:12.882Z,48.51
2023-04-23T02:16:17.016Z,48.58
2023-04-23T02:17:19.713Z,48.65
2023-04-23T02:18:21.225Z,48.36
2023-04-23T02:19:22.742Z,48.48
2023-04-23T02:20:25.264Z,48.42
2023-04-23T02:21:27.479Z,48.67
2023-04-23T02:22:29.175Z,48.68
2023-04-23T02:23:30.771Z,48.79
2023-04-23T02:24:32.275Z,48.76
2023-04-23T02:25:34.272Z,48.38
2023-04-23T02:26:35.825Z,48.23
2023-04-23T02:27:37.433Z,48.79
2023-04-23T02:28:41.335Z,49.01
2023-04-23T02:29:42.927Z,49.27
2023-04-23T02:30:47.799Z,49.32
2023-04-23T02:31:49.410Z,49.31
2023-04-23T02:32:53.699Z,48.93
2023-04-23T02:33:55.369Z,49.18
2023-04-23T02:34:59.749Z,49.14
2023-04-23T02:36:01.783Z,49.26
2023-04-23T02:37:05.038Z,49.40
2023-04-23T02:38:08.448Z,49.22
2023-04-23T02:39:10.005Z,49.30
2023-04-23T02:40:11.902Z,49.17
2023-04-23T02:41:13.432Z,49.01
2023-04-23T02:42:14.991Z,49.19
2023-04-23T02:43:18.165Z,49.43
2023-04-23T02:44:19.919Z,49.18
2023-04-23T02:45:24.586Z,49.52
2023-04-23T02:46:26.170Z,49.38
2023-04-23T02:47:27.817Z,49.33
2023-04-23T02:48:29.794Z,49.20
2023-04-23T02:49:31.461Z,49.29
2023-04-23T02:50:32.978Z,49.40
2023-04-23T02:51:34.513Z,49.41
2023-04-23T02:52:36.692Z,49.12
2023-04-23T02:53:38.404Z,49.41
2023-04-23T02:54:40.250Z,49.48
2023-04-23T02:55:41.918Z,49.16
2023-04-23T02:56:43.504Z,49.23
2023-04-23T02:57:45.607Z,49.36
2023-04-23T02:58:47.274Z,49.71
2023-04-23T02:59:50.270Z,49.06
2023-04-23T03:00:59.069Z,49.19
2023-04-23T03:02:00.699Z,49.13
2023-04-23T03:03:02.438Z,49.30
2023-04-23T03:04:04.585Z,49.35
2023-04-23T03:05:07.471Z,49.24
2023-04-23T03:06:09.007Z,49.48
2023-04-23T03:07:10.812Z,49.58
2023-04-23T03:08:12.317Z,49.23
2023-04-23T03:09:13.792Z,49.47
2023-04-23T03:10:15.492Z,49.45
2023-04-23T03:11:17.106Z,49.68
2023-04-23T03:12:18.789Z,49.77
2023-04-23T03:13:20.398Z,49.79
2023-04-23T03:14:22.615Z,49.80
2023-04-23T03:15:24.379Z,49.59
2023-04-23T03:16:28.211Z,49.55
2023-04-23T03:17:29.833Z,49.43
2023-04-23T03:18:31.492Z,49.43
2023-04-23T03:19:33.424Z,49.56
2023-04-23T03:20:35.728Z,49.87
2023-04-23T03:21:37.340Z,49.57
2023-04-23T03:22:41.257Z,49.39
2023-04-23T03:23:43.047Z,49.61
2023-04-23T03:24:44.823Z,49.40
2023-04-23T03:25:46.369Z,49.68
2023-04-23T03:26:48.303Z,49.54
2023-04-23T03:27:50.262Z,49.49
2023-04-23T03:28:51.858Z,49.56
2023-04-23T03:29:53.627Z,49.58
2023-04-23T03:30:55.396Z,49.42
2023-04-23T03:31:56.952Z,49.59
2023-04-23T03:33:02.336Z,49.53
2023-04-23T03:34:06.196Z,49.50
2023-04-23T03:35:12.095Z,49.33
2023-04-23T03:36:18.171Z,49.52
2023-04-23T03:37:19.787Z,49.40
2023-04-23T03:38:21.398Z,49.29
2023-04-23T03:39:24.253Z,49.38
2023-04-23T03:40:28.790Z,49.30
2023-04-23T03:41:33.960Z,49.27
2023-04-23T03:42:36.828Z,49.35
2023-04-23T03:43:38.644Z,49.42
2023-04-23T03:44:52.260Z,49.39
2023-04-23T03:45:53.881Z,49.19
2023-04-23T03:46:55.800Z,49.30
2023-04-23T03:47:57.388Z,49.27
2023-04-23T03:48:58.967Z,49.36
2023-04-23T03:50:02.082Z,49.50
2023-04-23T03:51:04.381Z,49.47
2023-04-23T03:52:11.256Z,49.44
2023-04-23T03:53:14.083Z,49.46
2023-04-23T03:54:47.729Z,49.54
2023-04-23T03:55:52.947Z,49.59
2023-04-23T03:56:54.849Z,49.50
2023-04-23T03:58:01.743Z,49.54
2023-04-23T03:59:11.445Z,49.44
2023-04-23T04:00:13.257Z,49.46
2023-04-23T04:01:14.736Z,49.47
2023-04-23T04:02:16.434Z,49.52
2023-04-23T04:03:18.474Z,49.52
2023-04-23T04:04:20.449Z,49.55
2023-04-23T04:05:24.058Z,49.53
2023-04-23T04:06:28.181Z,49.50
2023-04-23T04:07:30.659Z,49.32
2023-04-23T04:08:32.117Z,49.63
2023-04-23T04:09:35.061Z,49.43
2023-04-23T04:10:38.694Z,49.42
2023-04-23T04:11:41.106Z,49.65
2023-04-23T04:12:45.584Z,49.92
2023-04-23T04:13:47.098Z,49.88
2023-04-23T04:14:48.645Z,50.64
2023-04-23T04:15:50.560Z,50.28
2023-04-23T04:16:52.128Z,50.59
2023-04-23T04:17:53.716Z,50.53
2023-04-23T04:18:56.631Z,50.35
2023-04-23T04:20:00.724Z,50.36
2023-04-23T04:21:02.281Z,50.49
2023-04-23T04:22:03.888Z,50.44
2023-04-23T04:23:05.434Z,50.69
2023-04-23T04:24:06.911Z,50.66
2023-04-23T04:25:08.590Z,50.38
2023-04-23T04:26:13.056Z,50.70
2023-04-23T04:27:16.863Z,50.57
2023-04-23T04:28:18.470Z,50.64
2023-04-23T04:29:21.379Z,50.83
2023-04-23T04:32:31.939Z,50.73
2023-04-23T04:33:35.982Z,51.03
2023-04-23T04:34:38.342Z,51.20
2023-04-23T04:35:40.038Z,50.82
2023-04-23T04:36:42.313Z,50.92
2023-04-23T04:37:46.302Z,50.95
2023-04-23T04:38:47.852Z,50.65
2023-04-23T04:39:49.530Z,50.99
2023-04-23T04:40:50.969Z,50.66
2023-04-23T04:41:53.284Z,50.81
2023-04-23T04:42:55.126Z,50.88
2023-04-23T04:43:56.759Z,50.98
2023-04-23T04:45:01.155Z,50.92
2023-04-23T04:46:03.463Z,50.79
2023-04-23T04:47:08.042Z,51.07
2023-04-23T04:48:09.902Z,50.96
2023-04-23T04:49:12.298Z,51.08
2023-04-23T04:50:13.810Z,50.99
2023-04-23T04:51:15.847Z,51.10
2023-04-23T04:52:17.638Z,50.99
2023-04-23T04:53:19.200Z,51.06
2023-04-23T04:54:21.840Z,50.88
2023-04-23T04:55:23.382Z,50.92
2023-04-23T04:56:27.236Z,50.73
2023-04-23T04:57:28.902Z,50.81
2023-04-23T04:58:32.792Z,50.93
2023-04-23T04:59:34.279Z,51.01
2023-04-23T05:00:35.848Z,51.00
2023-04-23T05:01:37.897Z,50.93
2023-04-23T05:02:39.643Z,50.83
2023-04-23T05:03:41.501Z,51.31
2023-04-23T05:04:43.432Z,51.20
2023-04-23T05:05:50.671Z,51.09
2023-04-23T05:06:52.273Z,50.86
2023-04-23T05:07:54.409Z,51.04
2023-04-23T05:08:55.964Z,51.02
2023-04-23T05:09:57.548Z,51.09
2023-04-23T05:11:00.775Z,51.05
2023-04-23T05:12:02.324Z,50.83
2023-04-23T05:13:04.145Z,51.13
2023-04-23T05:14:05.754Z,51.24
2023-04-23T05:15:13.114Z,51.05
2023-04-23T05:16:14.778Z,51.01
2023-04-23T05:17:18.838Z,50.96
2023-04-23T05:18:21.083Z,50.74
2023-04-23T05:19:22.713Z,51.02
2023-04-23T05:20:24.206Z,51.23
2023-04-23T05:21:27.583Z,51.00
2023-04-23T05:22:29.357Z,50.96
2023-04-23T05:23:30.907Z,51.03
2023-04-23T05:24:32.499Z,50.74
2023-04-23T05:25:35.612Z,50.88
2023-04-23T05:26:37.278Z,50.59
2023-04-23T05:27:41.349Z,50.69
2023-04-23T05:28:42.981Z,50.87
2023-04-23T05:29:44.522Z,50.81
2023-04-23T05:30:48.144Z,50.71
2023-04-23T05:31:52.107Z,51.03
2023-04-23T05:32:53.650Z,50.77
2023-04-23T05:33:55.265Z,51.06
2023-04-23T05:36:06.630Z,51.06
2023-04-23T05:37:11.017Z,51.15
2023-04-23T05:38:12.609Z,50.97
2023-04-23T05:39:14.157Z,51.00
2023-04-23T05:40:18.321Z,50.97
2023-04-23T05:41:20.017Z,50.95
2023-04-23T05:42:21.923Z,51.05
2023-04-23T05:43:23.557Z,51.03
2023-04-23T05:44:25.271Z,50.72
2023-04-23T05:45:26.989Z,51.09
2023-04-23T05:46:28.778Z,50.99
2023-04-23T05:47:49.074Z,50.81
2023-04-23T05:49:09.208Z,50.81
2023-04-23T05:50:29.578Z,50.69
2023-04-23T05:51:51.839Z,50.78
2023-04-23T05:53:14.646Z,50.74
2023-04-23T05:54:36.608Z,50.90
2023-04-23T05:55:58.730Z,50.59
2023-04-23T05:57:20.763Z,50.65
2023-04-23T05:58:42.869Z,50.93
2023-04-23T06:00:09.584Z,51.17
2023-04-23T06:01:37.010Z,51.45
2023-04-23T06:03:01.190Z,51.96
2023-04-23T06:04:23.761Z,52.15
2023-04-23T06:05:45.995Z,52.12
2023-04-23T06:07:10.618Z,52.36
2023-04-23T06:08:32.501Z,52.16
2023-04-23T06:09:54.560Z,51.92
2023-04-23T06:11:16.775Z,51.68
2023-04-23T06:12:39.903Z,51.61
2023-04-23T06:14:03.033Z,51.32
2023-04-23T06:15:27.250Z,51.20
2023-04-23T06:16:49.261Z,51.07
2023-04-23T06:18:11.289Z,51.07
2023-04-23T06:19:33.253Z,50.96
2023-04-23T06:20:56.963Z,50.96
2023-04-23T06:22:18.942Z,50.68
2023-04-23T06:23:43.556Z,50.49
2023-04-23T06:25:08.553Z,50.19
2023-04-23T06:26:32.169Z,50.18
2023-04-23T06:27:59.927Z,50.16
2023-04-23T06:29:25.479Z,49.79
2023-04-23T06:30:58.524Z,49.59
2023-04-23T06:32:21.842Z,49.70
2023-04-23T06:33:43.777Z,49.85
2023-04-23T06:35:09.394Z,49.89
2023-04-23T06:36:32.291Z,49.62
2023-04-23T06:37:54.382Z,49.33
2023-04-23T06:39:16.444Z,49.18
2023-04-23T06:40:38.533Z,48.79
2023-04-23T06:42:00.451Z,48.67
2023-04-23T06:43:43.459Z,48.73
2023-04-23T06:45:25.692Z,48.57
2023-04-23T06:46:47.842Z,48.55
2023-04-23T06:48:09.816Z,48.25
2023-04-23T06:49:31.968Z,48.34
2023-04-23T06:50:53.948Z,48.24
2023-04-23T06:52:15.932Z,48.04
2023-04-23T06:53:40.485Z,47.98
2023-04-23T06:55:02.564Z,47.82
2023-04-23T06:56:27.487Z,47.83
2023-04-23T06:57:49.503Z,48.04
2023-04-23T06:58:51.161Z,48.06
2023-04-23T06:59:55.737Z,47.92
2023-04-23T07:01:01.539Z,48.00
2023-04-23T07:02:05.476Z,48.02
2023-04-23T07:03:07.312Z,48.31
2023-04-23T07:04:11.546Z,47.79
2023-04-23T07:05:13.261Z,47.80
2023-04-23T07:06:34.684Z,47.42
2023-04-23T07:07:55.290Z,47.12
2023-04-23T07:09:15.587Z,47.25
2023-04-23T07:10:37.645Z,47.46
2023-04-23T07:11:59.521Z,47.44
2023-04-23T07:13:24.029Z,47.19
2023-04-23T07:14:46.092Z,47.03
2023-04-23T07:16:08.164Z,46.84
2023-04-23T07:17:31.024Z,46.89
2023-04-23T07:18:53.407Z,46.81
2023-04-23T07:20:15.429Z,46.58
2023-04-23T07:21:40.269Z,46.33
2023-04-23T07:23:04.029Z,46.34
2023-04-23T07:24:26.794Z,46.22
2023-04-23T07:25:48.860Z,45.96
2023-04-23T07:27:11.027Z,45.85
2023-04-23T07:28:35.346Z,45.48
2023-04-23T07:29:59.624Z,45.57
2023-04-23T07:31:22.320Z,45.51
2023-04-23T07:32:44.348Z,45.23
2023-04-23T07:34:09.877Z,45.15
2023-04-23T07:35:31.841Z,45.11
2023-04-23T07:36:55.462Z,44.89
2023-04-23T07:38:17.471Z,44.75
2023-04-23T07:39:41.115Z,44.77
2023-04-23T07:41:04.620Z,44.52
2023-04-23T07:42:26.661Z,44.44
2023-04-23T07:43:48.781Z,44.47
2023-04-23T07:44:55.299Z,44.82
2023-04-23T07:45:56.874Z,44.75
2023-04-23T07:46:58.509Z,44.52
2023-04-23T07:48:02.621Z,44.20
2023-04-23T07:49:04.645Z,44.01
2023-04-23T07:50:10.236Z,44.04
2023-04-23T07:51:12.508Z,44.23
2023-04-23T07:52:15.484Z,44.01
2023-04-23T07:53:17.242Z,43.64
2023-04-23T07:54:18.731Z,43.89
2023-04-23T07:55:21.704Z,43.95
2023-04-23T07:56:24.561Z,43.80
2023-04-23T07:57:26.285Z,43.88
2023-04-23T07:58:27.928Z,44.42
2023-04-23T07:59:29.750Z,44.26
2023-04-23T08:00:34.433Z,43.82
2023-04-23T08:01:36.172Z,44.15
2023-04-23T08:02:38.082Z,43.59
2023-04-23T08:03:39.990Z,43.58
2023-04-23T08:04:42.031Z,43.59
2023-04-23T08:05:43.919Z,43.76
2023-04-23T08:06:45.462Z,44.05
2023-04-23T08:07:46.991Z,43.89
2023-04-23T08:08:51.034Z,43.54
2023-04-23T08:09:52.680Z,43.48
2023-04-23T08:10:57.058Z,43.62
2023-04-23T08:11:58.784Z,43.54
2023-04-23T08:13:00.571Z,43.76
2023-04-23T08:14:02.323Z,43.94
2023-04-23T08:15:04.597Z,43.49
2023-04-23T08:16:12.163Z,43.51
2023-04-23T08:17:13.784Z,43.33
2023-04-23T08:18:15.512Z,43.60
2023-04-23T08:19:17.155Z,43.38
2023-04-23T08:20:18.782Z,43.54
2023-04-23T08:21:20.764Z,43.20
2023-04-23T08:22:22.441Z,42.85
2023-04-23T08:23:24.165Z,43.08
2023-04-23T08:24:27.071Z,42.99
2023-04-23T08:25:28.660Z,42.68
2023-04-23T08:26:31.423Z,43.30
2023-04-23T08:27:33.132Z,43.25
2023-04-23T08:28:37.036Z,43.05
2023-04-23T08:29:38.646Z,43.20
2023-04-23T08:30:40.246Z,43.09
2023-04-23T08:31:44.380Z,43.16
2023-04-23T08:32:49.851Z,43.15
2023-04-23T08:33:51.737Z,43.12
2023-04-23T08:34:53.316Z,43.62
2023-04-23T08:35:55.048Z,43.38
2023-04-23T08:36:56.820Z,43.01
2023-04-23T08:37:58.348Z,43.25
2023-04-23T08:39:00.856Z,43.18
2023-04-23T08:40:04.032Z,42.54
2023-04-23T08:41:06.623Z,42.48
2023-04-23T08:42:27.008Z,42.41
2023-04-23T08:43:37.795Z,42.33
2023-04-23T08:44:42.892Z,42.14
2023-04-23T08:45:49.614Z,42.21
2023-04-23T08:46:53.824Z,42.31
2023-04-23T08:48:02.207Z,41.98
2023-04-23T08:49:08.472Z,42.13
2023-04-23T08:50:12.622Z,41.98
2023-04-23T08:51:19.126Z,42.14
2023-04-23T08:52:24.297Z,42.33
2023-04-23T08:53:29.652Z,42.31
2023-04-23T08:54:34.732Z,42.32
2023-04-23T08:55:36.699Z,42.41
2023-04-23T08:56:39.222Z,42.26
2023-04-23T08:57:44.078Z,42.29
2023-04-23T08:58:47.018Z,42.15
2023-04-23T08:59:54.216Z,42.14
2023-04-23T09:00:58.094Z,42.23
2023-04-23T09:02:08.332Z,42.26
2023-04-23T09:03:10.653Z,42.32
2023-04-23T09:04:16.966Z,42.48
2023-04-23T09:05:18.554Z,42.30
2023-04-23T09:06:20.593Z,42.29
2023-04-23T09:07:24.610Z,42.06
2023-04-23T09:08:26.346Z,41.83
2023-04-23T09:09:29.554Z,41.96
2023-04-23T09:10:31.590Z,41.75
2023-04-23T09:11:34.617Z,41.69
2023-04-23T09:12:36.773Z,41.82
2023-04-23T09:13:41.386Z,41.44
2023-04-23T09:14:43.246Z,41.29
2023-04-23T09:15:47.711Z,40.98
2023-04-23T09:16:50.650Z,40.98
2023-04-23T09:17:52.418Z,41.43
2023-04-23T09:18:59.634Z,41.67
2023-04-23T09:20:01.527Z,41.38
2023-04-23T09:21:04.443Z,41.37
2023-04-23T09:22:07.772Z,40.98
2023-04-23T09:23:13.657Z,40.98
2023-04-23T09:24:16.331Z,41.13
2023-04-23T09:25:23.194Z,41.02
2023-04-23T09:26:24.756Z,41.20
2023-04-23T09:27:26.808Z,41.25
2023-04-23T09:28:38.173Z,41.18
2023-04-23T09:29:40.103Z,41.28
2023-04-23T09:30:46.081Z,41.03
2023-04-23T09:31:52.022Z,41.19
2023-04-23T09:32:53.960Z,41.25
2023-04-23T09:33:55.688Z,41.25
2023-04-23T09:34:57.611Z,41.33
2023-04-23T09:35:59.155Z,41.47
2023-04-23T09:37:07.875Z,41.41
2023-04-23T09:38:10.658Z,41.57
2023-04-23T09:39:15.746Z,41.69
2023-04-23T09:40:20.050Z,41.43
2023-04-23T09:41:25.828Z,41.55
2023-04-23T09:42:28.531Z,41.33
2023-04-23T09:43:35.039Z,41.27
2023-04-23T09:44:38.208Z,41.60
2023-04-23T09:45:50.043Z,41.22
2023-04-23T09:46:51.851Z,41.05
2023-04-23T09:47:55.057Z,41.26
2023-04-23T09:49:01.408Z,41.32
2023-04-23T09:50:05.757Z,41.40
2023-04-23T09:51:07.653Z,41.42
2023-04-23T09:52:11.508Z,41.32
2023-04-23T09:53:14.282Z,41.02
2023-04-23T09:54:19.116Z,40.69
2023-04-23T09:55:35.208Z,41.14
2023-04-23T09:56:36.998Z,41.82
2023-04-23T09:57:43.003Z,42.21
2023-04-23T09:58:45.615Z,41.58
2023-04-23T09:59:52.941Z,41.62
2023-04-23T10:01:08.052Z,41.68
2023-04-23T10:02:11.338Z,41.55
2023-04-23T10:03:15.778Z,41.02
2023-04-23T10:04:27.430Z,41.17
2023-04-23T10:05:45.408Z,40.89
2023-04-23T10:07:13.736Z,40.40
2023-04-23T10:08:19.659Z,40.49
2023-04-23T10:09:24.512Z,40.36
2023-04-23T10:10:26.435Z,39.29
2023-04-23T10:11:28.306Z,39.31
2023-04-23T10:12:46.699Z,39.36
2023-04-23T10:13:53.657Z,39.21
2023-04-23T10:14:57.440Z,39.58
2023-04-23T10:16:13.972Z,38.94
2023-04-23T10:17:22.800Z,38.74
2023-04-23T10:18:24.790Z,38.10
2023-04-23T10:19:29.874Z,37.53
2023-04-23T10:20:31.985Z,37.73
2023-04-23T10:21:46.295Z,38.03
2023-04-23T10:22:57.491Z,37.75
2023-04-23T10:24:02.273Z,37.77
2023-04-23T10:25:11.473Z,37.18
2023-04-23T10:26:16.139Z,37.26
2023-04-23T10:27:28.542Z,37.09
2023-04-23T10:28:36.088Z,36.96
2023-04-23T10:29:41.444Z,37.25
2023-04-23T10:30:44.581Z,37.15
2023-04-23T10:31:46.448Z,37.05
2023-04-23T10:32:49.793Z,37.02
2023-04-23T10:33:59.319Z,36.91
2023-04-23T10:35:03.737Z,37.59
2023-04-23T10:36:06.141Z,37.25
2023-04-23T10:37:11.403Z,37.09
2023-04-23T10:38:14.387Z,36.72
2023-04-23T10:39:24.018Z,37.03
2023-04-23T10:40:34.061Z,37.47
2023-04-23T10:41:44.018Z,37.43
2023-04-23T10:42:46.533Z,37.76
2023-04-23T10:43:48.280Z,37.90
2023-04-23T10:44:59.572Z,38.10
2023-04-23T10:46:32.112Z,37.46
2023-04-23T10:47:33.845Z,37.42
2023-04-23T10:49:08.181Z,37.94
2023-04-23T10:50:24.926Z,37.34
2023-04-23T10:52:14.573Z,37.39
2023-04-23T10:52:57.650Z,36.83
2023-04-23T10:53:59.909Z,36.54
2023-04-23T10:55:01.543Z,37.26
2023-04-23T10:56:07.922Z,36.98
2023-04-23T10:57:11.087Z,36.80
2023-04-23T10:58:14.807Z,36.85
2023-04-23T10:59:20.524Z,36.86
2023-04-23T11:00:22.346Z,36.24
2023-04-23T11:01:25.784Z,36.30
2023-04-23T11:02:43.907Z,36.54
2023-04-23T11:03:46.002Z,36.40
2023-04-23T11:04:57.163Z,35.85
2023-04-23T11:06:03.442Z,36.04
2023-04-23T11:07:09.322Z,36.30
2023-04-23T11:08:19.401Z,35.89
2023-04-23T11:09:36.411Z,36.83
2023-04-23T11:10:57.986Z,36.47
2023-04-23T11:12:05.827Z,35.74
2023-04-23T11:13:29.593Z,35.90
2023-04-23T11:14:43.326Z,36.19
2023-04-23T11:15:46.935Z,36.47
2023-04-23T11:16:48.946Z,36.03
2023-04-23T11:17:59.435Z,36.06
2023-04-23T11:19:18.340Z,35.10
2023-04-23T11:20:23.975Z,35.23
2023-04-23T11:21:59.598Z,35.43
2023-04-23T11:23:01.323Z,35.09
2023-04-23T11:24:03.028Z,35.56
2023-04-23T11:25:08.730Z,35.66
2023-04-23T11:26:10.458Z,35.38
2023-04-23T11:27:13.151Z,36.15
2023-04-23T11:28:16.240Z,36.37
2023-04-23T11:29:21.294Z,35.79
2023-04-23T11:30:24.916Z,35.78
2023-04-23T11:31:26.840Z,36.07
2023-04-23T11:32:28.626Z,35.94
2023-04-23T11:33:30.125Z,35.72
2023-04-23T11:34:33.890Z,35.51
2023-04-23T11:35:41.451Z,35.52
2023-04-23T11:36:46.578Z,34.87
2023-04-23T11:37:48.829Z,35.16
2023-04-23T11:38:56.268Z,34.96
2023-04-23T11:40:08.650Z,34.87
2023-04-23T11:41:10.273Z,35.33
2023-04-23T11:42:13.077Z,35.72
2023-04-23T11:43:19.540Z,35.02
2023-04-23T11:44:23.234Z,34.82
2023-04-23T11:45:26.354Z,35.59
2023-04-23T11:46:28.092Z,34.72
2023-04-23T11:47:30.289Z,34.99
2023-04-23T11:48:34.080Z,35.00
2023-04-23T11:49:38.106Z,34.74
2023-04-23T11:50:41.898Z,34.70
2023-04-23T11:51:46.345Z,34.02
2023-04-23T11:52:48.173Z,34.47
2023-04-23T11:53:49.908Z,34.58
2023-04-23T11:54:51.650Z,33.88
2023-04-23T11:55:56.654Z,34.32
2023-04-23T11:56:59.298Z,34.38
2023-04-23T11:58:00.880Z,34.25
2023-04-23T11:59:05.792Z,34.35
2023-04-23T12:00:16.323Z,34.49
2023-04-23T12:01:17.960Z,35.34
2023-04-23T12:02:19.728Z,34.90
2023-04-23T12:03:27.127Z,34.59
2023-04-23T12:04:30.765Z,34.64
2023-04-23T12:05:36.659Z,34.38
2023-04-23T12:06:40.214Z,34.52
2023-04-23T12:07:41.830Z,34.20
2023-04-23T12:08:47.118Z,34.84
2023-04-23T12:09:48.737Z,34.39
2023-04-23T12:10:55.045Z,34.30
2023-04-23T12:12:00.289Z,34.12
2023-04-23T12:13:04.183Z,33.37
2023-04-23T12:14:08.538Z,33.67
2023-04-23T12:15:12.709Z,33.32
2023-04-23T12:16:14.647Z,33.64
2023-04-23T12:17:16.409Z,33.22
2023-04-23T12:18:20.453Z,33.26
2023-04-23T12:19:29.466Z,33.76
2023-04-23T12:20:31.097Z,33.37
2023-04-23T12:21:34.690Z,33.51
2023-04-23T12:22:38.436Z,33.16
2023-04-23T12:23:42.106Z,32.92
2023-04-23T12:24:48.797Z,33.15
2023-04-23T12:25:54.846Z,33.13
2023-04-23T12:27:00.447Z,33.04
2023-04-23T12:28:07.411Z,33.18
2023-04-23T12:29:09.157Z,33.30
2023-04-23T12:30:11.837Z,33.32
2023-04-23T12:31:20.865Z,33.27
2023-04-23T12:32:27.064Z,33.59
2023-04-23T12:33:30.595Z,32.89
2023-04-23T12:34:32.335Z,32.87
2023-04-23T12:35:47.006Z,33.53
2023-04-23T12:36:51.580Z,33.12
2023-04-23T12:37:53.144Z,33.82
2023-04-23T12:38:54.760Z,33.60
2023-04-23T12:39:59.645Z,33.55
2023-04-23T12:41:01.888Z,33.22
2023-04-23T12:42:06.696Z,33.59
2023-04-23T12:43:08.496Z,33.80
2023-04-23T12:44:12.450Z,33.76
2023-04-23T12:45:14.123Z,34.14
2023-04-23T12:46:15.695Z,33.04
2023-04-23T12:47:19.527Z,33.51
2023-04-23T12:48:21.232Z,33.79
2023-04-23T12:49:22.804Z,33.98
2023-04-23T12:50:24.366Z,33.74
2023-04-23T12:51:25.887Z,34.07
2023-04-23T12:52:28.357Z,33.97
2023-04-23T12:53:29.851Z,33.73
2023-04-23T12:54:32.351Z,33.48
2023-04-23T12:55:35.702Z,33.51
2023-04-23T12:56:37.764Z,33.58
2023-04-23T12:57:39.202Z,33.43
2023-04-23T12:58:40.744Z,33.31
2023-04-23T12:59:42.414Z,33.59
2023-04-23T13:00:44.367Z,33.39
2023-04-23T13:01:48.375Z,33.91
2023-04-23T13:02:50.108Z,33.66
2023-04-23T13:03:51.946Z,33.38
2023-04-23T13:04:59.554Z,33.59
2023-04-23T13:06:01.153Z,33.66
2023-04-23T13:07:03.134Z,33.51
2023-04-23T13:08:04.818Z,34.05
2023-04-23T13:09:11.332Z,34.25
2023-04-23T13:10:12.945Z,34.25
2023-04-23T13:11:14.540Z,34.50
2023-04-23T13:12:16.136Z,34.54
2023-04-23T13:13:17.767Z,34.83
2023-04-23T13:14:19.699Z,34.62
2023-04-23T13:15:21.208Z,34.80
2023-04-23T13:16:22.860Z,35.04
2023-04-23T13:17:26.233Z,34.81
2023-04-23T13:18:27.778Z,35.25
2023-04-23T13:19:29.282Z,36.10
2023-04-23T13:20:30.805Z,35.21
2023-04-23T13:21:32.362Z,35.56
2023-04-23T13:22:34.006Z,35.88
2023-04-23T13:23:38.359Z,35.89
2023-04-23T13:24:42.118Z,35.71
2023-04-23T13:25:43.641Z,35.64
2023-04-23T13:26:45.237Z,36.15
2023-04-23T13:27:46.736Z,35.91
2023-04-23T13:28:48.248Z,36.52
2023-04-23T13:29:49.806Z,36.56
2023-04-23T13:30:51.249Z,35.67
2023-04-23T13:31:53.669Z,34.99
2023-04-23T13:32:57.551Z,34.42
2023-04-23T13:33:59.203Z,34.92
2023-04-23T13:35:02.806Z,34.67
2023-04-23T13:36:04.618Z,34.79
2023-04-23T13:37:09.379Z,35.24
2023-04-23T13:38:15.337Z,36.76
2023-04-23T13:39:20.360Z,39.13
2023-04-23T13:40:21.873Z,37.92
2023-04-23T13:41:23.381Z,38.05
2023-04-23T13:42:25.017Z,38.70
2023-04-23T13:43:26.603Z,37.91
2023-04-23T13:44:28.058Z,37.33
2023-04-23T13:45:29.529Z,37.29
2023-04-23T13:46:31.710Z,36.81
2023-04-23T13:47:34.800Z,35.92
2023-04-23T13:48:36.466Z,36.03
2023-04-23T13:49:40.595Z,34.65
2023-04-23T13:50:42.588Z,34.22
2023-04-23T13:51:44.210Z,34.50
2023-04-23T13:52:45.812Z,33.03
2023-04-23T13:53:47.516Z,33.55
2023-04-23T13:54:50.841Z,33.47
2023-04-23T13:55:52.456Z,33.79
2023-04-23T13:56:55.064Z,34.07
2023-04-23T13:57:59.686Z,34.75
2023-04-23T14:00:08.438Z,34.50
2023-04-23T14:01:11.858Z,33.63
2023-04-23T14:02:17.002Z,34.55
2023-04-23T14:03:20.287Z,34.54
2023-04-23T14:04:24.910Z,34.95
2023-04-23T14:05:26.484Z,35.16
2023-04-23T14:06:27.989Z,34.24
2023-04-23T14:07:29.499Z,34.36
2023-04-23T14:08:31.087Z,34.31
2023-04-23T14:09:32.842Z,34.55
2023-04-23T14:10:34.764Z,35.30
2023-04-23T14:11:36.491Z,35.04